Aviation Digital Data Service (ADDS)

Output produced by METARs form (1254 UTC 17 September 2019)
found at http://www.aviationweather.gov/metar/data/
 
VTSB 171200Z VRB01KT 8000 FEW012 24/23 Q1009
VTSB 171100Z 16002KT 8000 FEW004 24/23 Q1009
VTSB 171000Z VRB02KT 8000 FEW003 OVC100 24/23 Q1009
VTSB 170900Z 14003KT 080V180 5000 RA SCT018 OVC100 24/23 Q1009
VTSB 170800Z 17003KT 110V200 5000 RA SCT018 OVC100 27/24 Q1009
VTSB 170700Z 19005KT 150V220 9999 SCT018 OVC100 27/25 Q1009
VTSB 170600Z 27008KT 220V310 8000 -RA SCT018 OVC100 27/24 Q1010
VTSB 170500Z 36005KT 330V040 9999 SCT018 OVC100 28/25 Q1010
VTSB 170400Z VRB01KT 9999 SCT018 29/25 Q1011
VTSB 170300Z VRB01KT 9999 FEW020 28/25 Q1011
VTSB 170200Z 00000KT 8000 FEW006 BKN100 26/25 Q1011
VTSB 170100Z VRB02KT 8000 SCT006 BKN100 25/24 Q1010
VTSB 170000Z VRB02KT 8000 VCSH FEW018CB 24/24 Q1010
VTSB 162300Z VRB02KT 6000 FEW020 24/24 Q1009
VTSB 162200Z VRB02KT 6000 FEW020 24/24 Q1008
VTSB 161500Z VRB02KT 9999 FEW020 25/23 Q1009
VTSB 161400Z VRB02KT 9999 FEW020 25/24 Q1009
VTSB 161300Z 19004KT 150V220 9999 FEW020 SCT100 26/24 Q1008
TAF VTSB 171100Z 1712/1812 20004KT 9000 FEW020 BKN100 
     TEMPO 1712/1718 5000 RA SCT015 BKN100 
     TEMPO 1806/1812 21010G20KT 3000 TSRA FEW016CB SCT018 BKN100